createdAt,value
2019-04-01T00:00:55.768Z,2.26
2019-04-01T00:02:05.713Z,2.08
2019-04-01T00:03:15.669Z,2.1
2019-04-01T00:04:25.356Z,2.14
2019-04-01T00:05:35.069Z,2.05
2019-04-01T00:06:44.750Z,2.1
2019-04-01T00:07:54.429Z,2.03
2019-04-01T00:09:04.119Z,2.07
2019-04-01T00:10:13.878Z,2.05
2019-04-01T00:11:23.575Z,2.05
2019-04-01T00:12:33.518Z,2.08
2019-04-01T00:13:43.212Z,1.93
2019-04-01T00:14:53.232Z,2.01
2019-04-01T00:16:03.187Z,1.97
2019-04-01T00:17:12.871Z,1.97
2019-04-01T00:18:22.560Z,1.95
2019-04-01T00:19:32.508Z,1.98
2019-04-01T00:20:42.181Z,1.89
2019-04-01T00:21:52.134Z,1.88
2019-04-01T00:23:02.597Z,1.93
2019-04-01T00:24:13.083Z,1.82
2019-04-01T00:25:22.520Z,1.78
2019-04-01T00:26:32.316Z,1.84
2019-04-01T00:27:42.276Z,1.74
2019-04-01T00:28:52.209Z,1.79
2019-04-01T00:30:02.175Z,1.71
2019-04-01T00:31:12.105Z,1.71
2019-04-01T00:32:21.552Z,1.61
2019-04-01T00:33:31.048Z,1.6
2019-04-01T00:34:40.999Z,1.61
2019-04-01T00:35:50.694Z,1.58
2019-04-01T00:37:00.381Z,1.56
2019-04-01T00:38:09.574Z,1.49
2019-04-01T00:39:19.315Z,1.52
2019-04-01T00:40:29.261Z,1.49
2019-04-01T00:41:38.973Z,1.48
2019-04-01T00:42:48.921Z,1.46
2019-04-01T00:43:58.856Z,1.53
2019-04-01T00:45:08.528Z,1.39
2019-04-01T00:46:18.207Z,1.31
2019-04-01T00:47:28.203Z,1.36
2019-04-01T00:48:38.147Z,1.38
2019-04-01T00:49:47.931Z,1.34
2019-04-01T00:50:57.882Z,1.4
2019-04-01T00:52:07.815Z,1.4
2019-04-01T00:53:20.430Z,1.38
2019-04-01T00:54:30.155Z,1.38
2019-04-01T00:55:40.097Z,1.28
2019-04-01T00:56:49.777Z,1.3
2019-04-01T00:57:59.462Z,1.27
2019-04-01T00:59:08.914Z,1.25
2019-04-01T01:00:18.619Z,1.21
2019-04-01T01:01:28.559Z,1.24
2019-04-01T01:02:38.266Z,1.14
2019-04-01T01:03:48.241Z,1.2
2019-04-01T01:04:57.424Z,1.14
2019-04-01T01:06:07.379Z,1.16
2019-04-01T01:07:17.067Z,1.16
2019-04-01T01:08:26.760Z,1.07
2019-04-01T01:09:36.899Z,1.06
2019-04-01T01:10:46.832Z,1.13
2019-04-01T01:11:56.517Z,1.02
2019-04-01T01:13:06.470Z,0.95
2019-04-01T01:14:16.152Z,0.99
2019-04-01T01:15:26.109Z,0.95
2019-04-01T01:16:36.040Z,0.99
2019-04-01T01:17:45.737Z,0.95
2019-04-01T01:18:55.190Z,0.99
2019-04-01T01:20:05.049Z,0.86
2019-04-01T01:21:14.736Z,0.89
2019-04-01T01:22:24.440Z,0.85
2019-04-01T01:23:34.374Z,0.82
2019-04-01T01:24:44.341Z,0.84
2019-04-01T01:25:53.779Z,0.76
2019-04-01T01:27:03.715Z,0.73
2019-04-01T01:28:13.663Z,0.7
2019-04-01T01:29:23.616Z,0.74
2019-04-01T01:30:33.555Z,0.7
2019-04-01T01:31:43.253Z,0.68
2019-04-01T01:32:52.938Z,0.63
2019-04-01T01:34:02.872Z,0.68
2019-04-01T01:35:12.833Z,0.51
2019-04-01T01:36:22.771Z,0.52
2019-04-01T01:37:32.717Z,0.52
2019-04-01T01:38:42.402Z,0.59
2019-04-01T01:39:52.106Z,0.51
2019-04-01T01:41:01.539Z,0.48
2019-04-01T01:42:11.468Z,0.45
2019-04-01T01:43:21.399Z,0.39
2019-04-01T01:44:31.350Z,0.49
2019-04-01T01:45:40.794Z,0.36
2019-04-01T01:46:50.726Z,0.31
2019-04-01T01:48:00.677Z,0.39
2019-04-01T01:49:10.119Z,0.34
2019-04-01T01:50:20.050Z,0.33
2019-04-01T01:51:29.723Z,0.26
2019-04-01T01:52:39.415Z,0.2
2019-04-01T01:53:49.357Z,0.19
2019-04-01T01:54:59.060Z,0.26
2019-04-01T01:56:08.797Z,0.15
2019-04-01T01:57:18.742Z,0.23
2019-04-01T01:58:28.414Z,0.15
2019-04-01T01:59:37.349Z,0.15
2019-04-01T02:00:47.289Z,0.18
2019-04-01T02:01:57.237Z,0.15
2019-04-01T02:03:07.189Z,0.02
2019-04-01T02:04:16.631Z,0.06
2019-04-01T02:05:26.331Z,0.08
2019-04-01T02:06:36.010Z,-0.03
2019-04-01T02:07:45.990Z,-0.03
2019-04-01T02:08:55.697Z,-0.03
2019-04-01T02:10:05.650Z,-0.05
2019-04-01T02:11:15.600Z,-0.06
2019-04-01T02:12:25.543Z,-0.12
2019-04-01T02:13:35.493Z,-0.13
2019-04-01T02:14:45.532Z,-0.2
2019-04-01T02:15:54.959Z,-0.15
2019-04-01T02:17:04.917Z,-0.12
2019-04-01T02:18:14.590Z,-0.13
2019-04-01T02:19:24.527Z,-0.21
2019-04-01T02:20:33.700Z,-0.18
2019-04-01T02:21:43.648Z,-0.24
2019-04-01T02:22:52.832Z,-0.12
2019-04-01T02:24:02.772Z,-0.21
2019-04-01T02:25:12.457Z,-0.18
2019-04-01T02:26:21.889Z,-0.17
2019-04-01T02:27:31.869Z,-0.27
2019-04-01T02:28:41.562Z,-0.27
2019-04-01T02:29:51.252Z,-0.27
2019-04-01T02:31:01.078Z,-0.35
2019-04-01T02:32:11.081Z,-0.35
2019-04-01T02:33:21.027Z,-0.31
2019-04-01T02:34:30.981Z,-0.45
2019-04-01T02:35:40.964Z,-0.44
2019-04-01T02:36:50.801Z,-0.46
2019-04-01T02:38:00.769Z,-0.42
2019-04-01T02:39:10.499Z,-0.48
2019-04-01T02:40:24.385Z,-0.53
2019-04-01T02:41:34.094Z,-0.46
2019-04-01T02:42:43.813Z,-0.45
2019-04-01T02:43:53.280Z,-0.59
2019-04-01T02:45:03.326Z,-0.49
2019-04-01T02:46:13.309Z,-0.59
2019-04-01T02:47:23.272Z,-0.64
2019-04-01T02:48:33.140Z,-0.59
2019-04-01T02:49:43.125Z,-0.57
2019-04-01T02:50:53.114Z,-0.66
2019-04-01T02:52:03.048Z,-0.72
2019-04-01T02:53:13.018Z,-0.72
2019-04-01T02:54:22.968Z,-0.72
2019-04-01T02:55:32.923Z,-0.72
2019-04-01T02:56:42.628Z,-0.78
2019-04-01T02:57:52.583Z,-0.69
2019-04-01T02:59:02.334Z,-0.72
2019-04-01T03:00:11.810Z,-0.77
2019-04-01T03:01:21.519Z,-0.74
2019-04-01T03:02:31.618Z,-0.72
2019-04-01T03:03:41.570Z,-0.69
2019-04-01T03:04:51.523Z,-0.74
2019-04-01T03:06:01.478Z,-0.66
2019-04-01T03:07:11.222Z,-0.82
2019-04-01T03:08:21.179Z,-0.77
2019-04-01T03:09:31.135Z,-0.8
2019-04-01T03:10:41.099Z,-0.78
2019-04-01T03:11:51.056Z,-0.82
2019-04-01T03:13:01.034Z,-0.91
2019-04-01T03:14:10.498Z,-0.94
2019-04-01T03:15:20.449Z,-0.91
2019-04-01T03:16:30.262Z,-1.03
2019-04-01T03:17:40.276Z,-0.93
2019-04-01T03:18:50.310Z,-0.97
2019-04-01T03:20:00.463Z,-1
2019-04-01T03:21:10.760Z,-0.97
2019-04-01T03:22:20.737Z,-0.99
2019-04-01T03:23:30.451Z,-1.12
2019-04-01T03:24:40.235Z,-1.09
2019-04-01T03:25:49.936Z,-1.06
2019-04-01T03:26:59.914Z,-1.09
2019-04-01T03:28:09.843Z,-1.03
2019-04-01T03:29:19.797Z,-1.11
2019-04-01T03:30:29.643Z,-1.12
2019-04-01T03:31:39.482Z,-1.15
2019-04-01T03:32:50.471Z,-1.17
2019-04-01T03:34:00.448Z,-1.17
2019-04-01T03:35:10.441Z,-1.18
2019-04-01T03:36:20.186Z,-1.24
2019-04-01T03:37:29.876Z,-1.25
2019-04-01T03:38:39.824Z,-1.21
2019-04-01T03:39:49.795Z,-1.18
2019-04-01T03:40:59.762Z,-1.27
2019-04-01T03:42:09.205Z,-1.22
2019-04-01T03:43:19.191Z,-1.29
2019-04-01T03:44:28.897Z,-1.3
2019-04-01T03:45:38.826Z,-1.3
2019-04-01T03:46:48.769Z,-1.25
2019-04-01T03:47:58.717Z,-1.29
2019-04-01T03:49:09.037Z,-1.3
2019-04-01T03:50:19.014Z,-1.36
2019-04-01T03:51:28.964Z,-1.39
2019-04-01T03:52:38.415Z,-1.33
2019-04-01T03:53:48.381Z,-1.3
2019-04-01T03:54:57.821Z,-1.33
2019-04-01T03:56:08.081Z,-1.36
2019-04-01T03:57:18.070Z,-1.35
2019-04-01T03:58:28.023Z,-1.3
2019-04-01T03:59:37.965Z,-1.39
2019-04-01T04:00:47.692Z,-1.35
2019-04-01T04:01:57.135Z,-1.33
2019-04-01T04:03:07.261Z,-1.4
2019-04-01T04:04:17.261Z,-1.39
2019-04-01T04:05:26.955Z,-1.32
2019-04-01T04:06:36.643Z,-1.32
2019-04-01T04:07:46.327Z,-1.21
2019-04-01T04:08:56.431Z,-1.27
2019-04-01T04:10:09.778Z,-1.29
2019-04-01T04:11:19.847Z,-1.29
2019-04-01T04:12:29.577Z,-1.36
2019-04-01T04:13:39.049Z,-1.3
2019-04-01T04:14:53.489Z,-1.35
2019-04-01T04:16:03.480Z,-1.32
2019-04-01T04:17:13.433Z,-1.36
2019-04-01T04:18:23.368Z,-1.46
2019-04-01T04:19:33.100Z,-1.5
2019-04-01T04:20:42.595Z,-1.5
2019-04-01T04:21:52.587Z,-1.58
2019-04-01T04:23:02.674Z,-1.57
2019-04-01T04:24:12.628Z,-1.58
2019-04-01T04:25:22.597Z,-1.53
2019-04-01T04:26:32.296Z,-1.58
2019-04-01T04:27:42.259Z,-1.54
2019-04-01T04:28:51.955Z,-1.57
2019-04-01T04:30:01.669Z,-1.63
2019-04-01T04:31:11.645Z,-1.58
2019-04-01T04:32:21.329Z,-1.66
2019-04-01T04:33:31.381Z,-1.72
2019-04-01T04:34:41.345Z,-1.76
2019-04-01T04:35:51.390Z,-1.74
2019-04-01T04:37:01.358Z,-1.74
2019-04-01T04:38:11.312Z,-1.75
2019-04-01T04:39:21.014Z,-1.78
2019-04-01T04:40:30.712Z,-1.78
2019-04-01T04:41:40.699Z,-1.86
2019-04-01T04:42:50.656Z,-1.89
2019-04-01T04:44:00.625Z,-1.81
2019-04-01T04:45:10.810Z,-1.87
2019-04-01T04:46:23.624Z,-1.81
2019-04-01T04:47:33.593Z,-1.84
2019-04-01T04:48:43.531Z,-1.76
2019-04-01T04:49:53.497Z,-1.82
2019-04-01T04:51:03.444Z,-1.87
2019-04-01T04:52:13.133Z,-1.74
2019-04-01T04:53:22.828Z,-1.84
2019-04-01T04:54:32.516Z,-1.78
2019-04-01T04:55:42.463Z,-1.69
2019-04-01T04:56:52.137Z,-1.76
2019-04-01T04:58:01.821Z,-1.69
2019-04-01T04:59:11.777Z,-1.71
2019-04-01T05:00:21.733Z,-1.66
2019-04-01T05:01:31.449Z,-1.58
2019-04-01T05:02:41.394Z,-1.57
2019-04-01T05:03:51.360Z,-1.61
2019-04-01T05:05:01.537Z,-1.6
2019-04-01T05:06:11.236Z,-1.57
2019-04-01T05:07:21.202Z,-1.6
2019-04-01T05:08:31.151Z,-1.58
2019-04-01T05:09:41.088Z,-1.58
2019-04-01T05:10:50.786Z,-1.56
2019-04-01T05:12:00.720Z,-1.71
2019-04-01T05:13:10.650Z,-1.57
2019-04-01T05:14:20.095Z,-1.53
2019-04-01T05:15:29.797Z,-1.53
2019-04-01T05:16:39.741Z,-1.57
2019-04-01T05:17:49.414Z,-1.6
2019-04-01T05:18:59.364Z,-1.58
2019-04-01T05:20:09.040Z,-1.64
2019-04-01T05:21:21.855Z,-1.69
2019-04-01T05:22:31.792Z,-1.61
2019-04-01T05:23:41.218Z,-1.54
2019-04-01T05:24:50.925Z,-1.56
2019-04-01T05:26:00.854Z,-1.6
2019-04-01T05:27:10.795Z,-1.56
2019-04-01T05:28:20.747Z,-1.54
2019-04-01T05:29:30.703Z,-1.58
2019-04-01T05:30:40.636Z,-1.56
2019-04-01T05:31:50.588Z,-1.45
2019-04-01T05:33:00.262Z,-1.43
2019-04-01T05:34:09.947Z,-1.4
2019-04-01T05:35:19.137Z,-1.36
2019-04-01T05:36:28.581Z,-1.35
2019-04-01T05:37:38.269Z,-1.39
2019-04-01T05:38:48.203Z,-1.36
2019-04-01T05:39:57.903Z,-1.39
2019-04-01T05:41:07.949Z,-1.35
2019-04-01T05:42:17.910Z,-1.36
2019-04-01T05:43:27.876Z,-1.35
2019-04-01T05:44:37.822Z,-1.39
2019-04-01T05:45:47.289Z,-1.36
2019-04-01T05:46:57.243Z,-1.36
2019-04-01T05:48:06.943Z,-1.36
2019-04-01T05:49:16.898Z,-1.3
2019-04-01T05:50:26.342Z,-1.17
2019-04-01T05:51:36.031Z,-1.17
2019-04-01T05:52:45.712Z,-1.12
2019-04-01T05:53:55.392Z,-1.11
2019-04-01T05:55:08.506Z,-1.11
2019-04-01T05:56:18.854Z,-1.01
2019-04-01T05:57:28.802Z,-1.09
2019-04-01T05:58:38.770Z,-1
2019-04-01T05:59:48.776Z,-0.97
2019-04-01T06:00:57.971Z,-0.87
2019-04-01T06:02:07.677Z,-0.78
2019-04-01T06:03:17.643Z,-0.77
2019-04-01T06:04:27.325Z,-0.67
2019-04-01T06:05:37.289Z,-0.64
2019-04-01T06:06:48.764Z,-0.59
2019-04-01T06:07:58.857Z,-0.57
2019-04-01T06:09:08.567Z,-0.39
2019-04-01T06:10:18.509Z,-0.35
2019-04-01T06:11:27.959Z,-0.2
2019-04-01T06:12:37.894Z,-0.13
2019-04-01T06:13:47.337Z,-0.13
2019-04-01T06:14:57.031Z,-0.17
2019-04-01T06:16:06.848Z,-0.05
2019-04-01T06:17:16.541Z,0.05
2019-04-01T06:18:26.253Z,0
2019-04-01T06:19:36.227Z,0.13
2019-04-01T06:20:46.010Z,0.2
2019-04-01T06:21:55.952Z,0.29
2019-04-01T06:23:05.882Z,0.33
2019-04-01T06:24:15.574Z,0.4
2019-04-01T06:25:25.264Z,0.51
2019-04-01T06:26:35.232Z,0.49
2019-04-01T06:27:45.182Z,0.58
2019-04-01T06:28:54.950Z,0.68
2019-04-01T06:30:05.176Z,0.7
2019-04-01T06:31:14.864Z,0.68
2019-04-01T06:32:24.552Z,0.71
2019-04-01T06:33:34.015Z,0.81
2019-04-01T06:34:56.843Z,0.73
2019-04-01T06:36:06.788Z,0.68
2019-04-01T06:37:16.757Z,0.74
2019-04-01T06:38:26.867Z,0.85
2019-04-01T06:39:36.583Z,0.91
2019-04-01T06:40:46.520Z,1.06
2019-04-01T06:41:56.475Z,1.1
2019-04-01T06:43:06.421Z,1.13
2019-04-01T06:44:15.860Z,1.13
2019-04-01T06:45:25.805Z,1.24
2019-04-01T06:46:35.740Z,1.38
2019-04-01T06:47:45.696Z,1.36
2019-04-01T06:48:55.644Z,1.52
2019-04-01T06:50:05.595Z,1.49
2019-04-01T06:51:15.035Z,1.52
2019-04-01T06:52:25.119Z,1.6
2019-04-01T06:53:34.811Z,1.5
2019-04-01T06:54:44.545Z,1.6
2019-04-01T06:55:53.989Z,1.84
2019-04-01T06:57:03.931Z,1.89
2019-04-01T06:58:16.651Z,1.93
2019-04-01T06:59:26.588Z,2.07
2019-04-01T07:00:36.775Z,2.21
2019-04-01T07:01:46.450Z,2.22
2019-04-01T07:02:56.398Z,2.26
2019-04-01T07:04:06.347Z,2.37
2019-04-01T07:05:17.356Z,2.51
2019-04-01T07:06:27.289Z,2.5
2019-04-01T07:07:36.763Z,2.52
2019-04-01T07:08:46.489Z,2.5
2019-04-01T07:09:56.454Z,2.57
2019-04-01T07:11:05.937Z,2.69
2019-04-01T07:12:15.881Z,2.76
2019-04-01T07:13:25.578Z,2.82
2019-04-01T07:14:35.519Z,2.82
2019-04-01T07:15:45.466Z,2.94
2019-04-01T07:16:55.420Z,2.93
2019-04-01T07:18:05.382Z,2.98
2019-04-01T07:19:15.341Z,2.95
2019-04-01T07:20:24.797Z,3.01
2019-04-01T07:21:34.757Z,3.09
2019-04-01T07:22:44.722Z,3.13
2019-04-01T07:23:54.435Z,3.11
2019-04-01T07:25:04.138Z,3.12
2019-04-01T07:26:13.821Z,3.22
2019-04-01T07:27:23.777Z,3.19
2019-04-01T07:28:33.735Z,3.33
2019-04-01T07:29:43.697Z,3.33
2019-04-01T07:30:53.448Z,3.46
2019-04-01T07:32:03.429Z,3.48
2019-04-01T07:33:13.149Z,3.5
2019-04-01T07:34:22.869Z,3.56
2019-04-01T07:35:32.572Z,3.7
2019-04-01T07:36:42.791Z,3.66
2019-04-01T07:37:52.692Z,3.66
2019-04-01T07:39:02.659Z,3.67
2019-04-01T07:40:16.280Z,3.74
2019-04-01T07:41:26.231Z,3.81
2019-04-01T07:42:36.181Z,3.92
2019-04-01T07:43:46.157Z,3.77
2019-04-01T07:44:56.089Z,3.95
2019-04-01T07:46:08.103Z,3.89
2019-04-01T07:47:18.011Z,3.96
2019-04-01T07:48:27.973Z,4.14
2019-04-01T07:49:38.002Z,4.14
2019-04-01T07:50:47.887Z,4.1
2019-04-01T07:51:57.407Z,4.28
2019-04-01T07:53:07.348Z,4.25
2019-04-01T07:54:20.966Z,4.36
2019-04-01T07:55:31.781Z,4.46
2019-04-01T07:56:41.739Z,4.4
2019-04-01T07:57:51.193Z,4.38
2019-04-01T07:59:04.913Z,4.6
2019-04-01T08:00:14.625Z,4.58
2019-04-01T08:01:24.333Z,4.6
2019-04-01T08:02:34.323Z,4.7
2019-04-01T08:03:46.818Z,4.7
2019-04-01T08:04:56.504Z,4.71
2019-04-01T08:06:05.697Z,4.82
2019-04-01T08:07:18.253Z,5
2019-04-01T08:08:28.213Z,5.01
2019-04-01T08:09:37.924Z,4.89
2019-04-01T08:10:47.886Z,4.98
2019-04-01T08:11:57.842Z,5
2019-04-01T08:13:07.550Z,5.01
2019-04-01T08:14:17.521Z,5.08
2019-04-01T08:15:27.240Z,5.1
2019-04-01T08:16:37.192Z,5.19
2019-04-01T08:17:47.216Z,5.22
2019-04-01T08:18:57.261Z,5.34
2019-04-01T08:20:06.992Z,5.34
2019-04-01T08:21:16.717Z,5.28
2019-04-01T08:22:26.680Z,5.36
2019-04-01T08:23:36.651Z,5.36
2019-04-01T08:24:46.444Z,5.41
2019-04-01T08:25:56.224Z,5.47
2019-04-01T08:27:07.295Z,5.56
2019-04-01T08:28:17.402Z,5.59
2019-04-01T08:29:35.266Z,5.58
2019-04-01T08:30:45.216Z,5.67
2019-04-01T08:31:54.907Z,5.74
2019-04-01T08:33:04.881Z,5.73
2019-04-01T08:34:14.905Z,5.72
2019-04-01T08:35:24.843Z,5.87
2019-04-01T08:36:34.559Z,5.84
2019-04-01T08:37:45.531Z,5.97
2019-04-01T08:38:57.908Z,6.09
2019-04-01T08:40:07.600Z,6.15
2019-04-01T08:41:17.298Z,6.19
2019-04-01T08:42:27.251Z,6.41
2019-04-01T08:43:36.953Z,6.83
2019-04-01T08:44:46.394Z,7.26
2019-04-01T08:45:56.091Z,7.61
2019-04-01T08:47:05.534Z,8.03
2019-04-01T08:48:15.493Z,8.38
2019-04-01T08:49:25.429Z,8.68
2019-04-01T08:50:35.399Z,9.08
2019-04-01T08:51:45.117Z,9.29
2019-04-01T08:52:55.094Z,9.66
2019-04-01T08:54:05.362Z,9.85
2019-04-01T08:55:15.326Z,10.2
2019-04-01T08:56:25.317Z,10.61
2019-04-01T08:57:35.278Z,10.86
2019-04-01T08:58:45.221Z,11.26
2019-04-01T08:59:58.729Z,11.74
2019-04-01T09:01:08.696Z,11.99
2019-04-01T09:02:23.220Z,12.44
2019-04-01T09:03:33.274Z,12.5
2019-04-01T09:04:42.464Z,12.87
2019-04-01T09:05:52.657Z,12.86
2019-04-01T09:07:02.968Z,12.98
2019-04-01T09:08:12.934Z,13.36
2019-04-01T09:09:22.901Z,13.73
2019-04-01T09:10:32.609Z,13.87
2019-04-01T09:11:43.435Z,14.01
2019-04-01T09:12:53.377Z,13.97
2019-04-01T09:14:03.079Z,14.16
2019-04-01T09:15:12.896Z,14.37
2019-04-01T09:16:22.634Z,14.51
2019-04-01T09:17:32.588Z,14.59
2019-04-01T09:18:45.733Z,14.34
2019-04-01T09:19:55.420Z,14.44
2019-04-01T09:21:05.415Z,14.52
2019-04-01T09:22:15.361Z,14.41
2019-04-01T09:23:25.304Z,14.33
2019-04-01T09:24:35.306Z,14.45
2019-04-01T09:25:45.271Z,14.55
2019-04-01T09:26:54.976Z,14.74
2019-04-01T09:28:04.923Z,14.85
2019-04-01T09:29:14.879Z,14.68
2019-04-01T09:30:24.829Z,14.79
2019-04-01T09:31:34.529Z,14.89
2019-04-01T09:32:44.579Z,14.87
2019-04-01T09:33:54.024Z,15.02
2019-04-01T09:35:03.819Z,15.14
2019-04-01T09:36:13.783Z,15.23
2019-04-01T09:37:23.522Z,15.45
2019-04-01T09:38:32.977Z,15.55
2019-04-01T09:39:42.440Z,15.6
2019-04-01T09:40:52.416Z,15.69
2019-04-01T09:42:02.130Z,15.81
2019-04-01T09:43:14.049Z,15.98
2019-04-01T09:44:38.457Z,16.31
2019-04-01T09:45:48.417Z,16.49
2019-04-01T09:46:58.157Z,16.39
2019-04-01T09:48:08.114Z,16.29
2019-04-01T09:49:18.084Z,16.12
2019-04-01T09:50:28.038Z,15.75
2019-04-01T09:51:52.754Z,15.98
2019-04-01T09:53:03.185Z,16.16
2019-04-01T09:54:12.085Z,16.24
2019-04-01T09:55:21.745Z,16.29
2019-04-01T09:56:31.140Z,16.58
2019-04-01T09:57:40.929Z,16.64
2019-04-01T09:58:51.106Z,16.74
2019-04-01T10:00:00.569Z,16.64
2019-04-01T10:01:09.824Z,16.76
2019-04-01T10:02:33.466Z,16.83
2019-04-01T10:03:43.274Z,16.8
2019-04-01T10:04:52.761Z,17.01
2019-04-01T10:06:02.211Z,17.32
2019-04-01T10:07:14.955Z,17.71
2019-04-01T10:08:24.756Z,17.79
2019-04-01T10:09:51.551Z,17.86
2019-04-01T10:11:01.200Z,17.87
2019-04-01T10:12:10.869Z,17.78
2019-04-01T10:13:20.207Z,17.66
2019-04-01T10:14:30.093Z,17.68
2019-04-01T10:15:40.032Z,17.59
2019-04-01T10:16:49.549Z,17.72
2019-04-01T10:17:59.202Z,17.8
2019-04-01T10:19:09.175Z,18.02
2019-04-01T10:20:18.891Z,18.13
2019-04-01T10:21:28.324Z,18.24
2019-04-01T10:22:37.723Z,18.52
2019-04-01T10:23:47.545Z,18.48
2019-04-01T10:24:57.290Z,18.58
2019-04-01T10:26:06.817Z,18.58
2019-04-01T10:27:17.107Z,18.6
2019-04-01T10:28:26.982Z,18.71
2019-04-01T10:29:39.590Z,18.61
2019-04-01T10:30:49.457Z,18.64
2019-04-01T10:31:58.941Z,18.61
2019-04-01T10:33:08.846Z,18.52
2019-04-01T10:34:18.266Z,18.42
2019-04-01T10:35:28.228Z,18.23
2019-04-01T10:36:38.197Z,18.39
2019-04-01T10:37:48.158Z,18.09
2019-04-01T10:38:57.614Z,18.27
2019-04-01T10:40:07.558Z,18.26
2019-04-01T10:41:17.288Z,18.73
2019-04-01T10:42:27.276Z,18.91
2019-04-01T10:43:36.756Z,18.58
2019-04-01T10:44:46.470Z,18.68
2019-04-01T10:45:56.253Z,18.83
2019-04-01T10:47:06.180Z,19.19
2019-04-01T10:48:16.517Z,19.35
2019-04-01T10:49:26.831Z,19.52
2019-04-01T10:50:40.014Z,19.35
2019-04-01T10:51:50.249Z,19.32
2019-04-01T10:53:00.414Z,19.3
2019-04-01T10:54:10.334Z,19.17
2019-04-01T10:55:20.504Z,18.76
2019-04-01T10:56:30.668Z,18.91
2019-04-01T10:57:46.020Z,19.24
2019-04-01T10:58:59.167Z,19.05
2019-04-01T11:00:09.221Z,19.01
2019-04-01T11:01:19.683Z,19.2
2019-04-01T11:02:29.756Z,19.37
2019-04-01T11:03:39.816Z,19.24
2019-04-01T11:04:49.869Z,19.11
2019-04-01T11:05:59.268Z,19.37
2019-04-01T11:07:09.380Z,19.39
2019-04-01T11:08:19.689Z,19.45
2019-04-01T11:09:43.060Z,19.92
2019-04-01T11:10:52.325Z,20.07
2019-04-01T11:12:01.963Z,20.37
2019-04-01T11:13:11.362Z,20.56
2019-04-01T11:14:20.705Z,20.32
2019-04-01T11:15:30.084Z,20.08
2019-04-01T11:16:40.043Z,19.84
2019-04-01T11:17:54.660Z,19.94
2019-04-01T11:19:04.625Z,20.21
2019-04-01T11:20:15.629Z,20.11
2019-04-01T11:21:25.586Z,19.85
2019-04-01T11:22:36.679Z,19.87
2019-04-01T11:23:46.405Z,20.03
2019-04-01T11:24:56.374Z,20.03
2019-04-01T11:26:06.076Z,20.17
2019-04-01T11:27:16.398Z,20.29
2019-04-01T11:28:26.131Z,20.52
2019-04-01T11:29:36.078Z,20.56
2019-04-01T11:30:46.130Z,20.33
2019-04-01T11:31:55.978Z,20.04
2019-04-01T11:33:07.647Z,19.96
2019-04-01T11:34:19.220Z,20.03
2019-04-01T11:35:29.451Z,19.87
2019-04-01T11:36:39.369Z,19.87
2019-04-01T11:37:50.876Z,19.97
2019-04-01T11:39:01.027Z,20.21
2019-04-01T11:40:16.199Z,20.63
2019-04-01T11:41:26.441Z,20.9
2019-04-01T11:42:40.149Z,20.78
2019-04-01T11:43:50.551Z,20.77
2019-04-01T11:45:00.452Z,20.74
2019-04-01T11:46:17.382Z,20.53
2019-04-01T11:47:28.880Z,20.55
2019-04-01T11:48:38.769Z,20.56
2019-04-01T11:49:49.002Z,20.55
2019-04-01T11:50:59.190Z,20.63
2019-04-01T11:52:09.517Z,20.59
2019-04-01T11:53:23.154Z,20.46
2019-04-01T11:54:33.112Z,20.63
2019-04-01T11:55:43.941Z,20.8
2019-04-01T11:56:53.898Z,20.88
2019-04-01T11:58:03.864Z,21.26
2019-04-01T11:59:14.672Z,21.29
2019-04-01T12:00:26.151Z,21.32
2019-04-01T12:01:39.248Z,21.29
2019-04-01T12:02:49.061Z,21.25
2019-04-01T12:03:59.085Z,21.17
2019-04-01T12:05:09.081Z,21.22
2019-04-01T12:06:18.809Z,21.2
2019-04-01T12:07:28.647Z,21.51
2019-04-01T12:08:38.361Z,21.69
2019-04-01T12:09:48.070Z,21.91
2019-04-01T12:11:01.294Z,21.91
2019-04-01T12:12:25.955Z,22.03
2019-04-01T12:13:37.185Z,22.15
2019-04-01T12:14:46.660Z,22.07
2019-04-01T12:15:56.627Z,21.6
2019-04-01T12:17:06.598Z,21.74
2019-04-01T12:18:16.596Z,22.06
2019-04-01T12:19:26.555Z,22.18
2019-04-01T12:20:36.520Z,22.36
2019-04-01T12:21:46.477Z,22.36
2019-04-01T12:22:56.180Z,22.34
2019-04-01T12:24:06.160Z,22.18
2019-04-01T12:25:16.961Z,21.8
2019-04-01T12:26:26.917Z,21.83
2019-04-01T12:27:36.623Z,21.83
2019-04-01T12:28:46.361Z,21.97
2019-04-01T12:29:56.334Z,22.18
2019-04-01T12:31:06.331Z,22.16
2019-04-01T12:32:18.146Z,22.4
2019-04-01T12:33:31.081Z,22.44
2019-04-01T12:34:44.504Z,22.38
2019-04-01T12:35:54.613Z,22.44
2019-04-01T12:37:04.377Z,22.53
2019-04-01T12:38:13.854Z,22.06
2019-04-01T12:39:24.100Z,21.54
2019-04-01T12:40:34.143Z,21.51
2019-04-01T12:41:43.859Z,21.74
2019-04-01T12:42:55.526Z,21.85
2019-04-01T12:44:05.469Z,21.91
2019-04-01T12:45:16.468Z,21.75
2019-04-01T12:46:26.188Z,21.7
2019-04-01T12:47:36.152Z,21.81
2019-04-01T12:48:48.318Z,21.84
2019-04-01T12:49:58.289Z,21.7
2019-04-01T12:51:08.011Z,21.94
2019-04-01T12:52:18.383Z,22.07
2019-04-01T12:53:28.159Z,22.12
2019-04-01T12:54:37.861Z,22.36
2019-04-01T12:55:49.814Z,21.89
2019-04-01T12:56:59.518Z,21.83
2019-04-01T12:58:09.239Z,21.7
2019-04-01T12:59:22.727Z,21.72
2019-04-01T13:00:34.198Z,21.81
2019-04-01T13:01:43.899Z,21.84
2019-04-01T13:02:54.743Z,22.08
2019-04-01T13:04:06.777Z,22.26
2019-04-01T13:05:16.495Z,22.25
2019-04-01T13:06:27.968Z,22.06
2019-04-01T13:07:37.915Z,21.97
2019-04-01T13:08:47.397Z,22
2019-04-01T13:09:58.903Z,22.03
2019-04-01T13:11:08.893Z,22.04
2019-04-01T13:12:20.298Z,22.01
2019-04-01T13:13:32.680Z,22.04
2019-04-01T13:14:45.827Z,22.18
2019-04-01T13:15:55.553Z,22.07
2019-04-01T13:17:05.517Z,22.15
2019-04-01T13:18:15.232Z,21.68
2019-04-01T13:19:26.527Z,21.56
2019-04-01T13:20:44.422Z,21.6
2019-04-01T13:21:57.125Z,21.7
2019-04-01T13:23:06.854Z,21.62
2019-04-01T13:24:16.819Z,21.58
2019-04-01T13:25:26.790Z,21.88
2019-04-01T13:26:36.738Z,22.19
2019-04-01T13:27:46.436Z,22.25
2019-04-01T13:28:57.451Z,22.4
2019-04-01T13:30:07.178Z,22.31
2019-04-01T13:31:17.164Z,22.15
2019-04-01T13:32:27.147Z,22.37
2019-04-01T13:33:37.122Z,22.15
2019-04-01T13:34:46.850Z,21.83
2019-04-01T13:35:57.692Z,21.99
2019-04-01T13:37:07.405Z,22.15
2019-04-01T13:38:17.913Z,21.97
2019-04-01T13:39:27.753Z,21.99
2019-04-01T13:40:37.715Z,22.15
2019-04-01T13:41:50.203Z,22.3
2019-04-01T13:43:06.915Z,21.88
2019-04-01T13:44:18.056Z,21.53
2019-04-01T13:45:41.486Z,21.58
2019-04-01T13:46:55.878Z,21.74
2019-04-01T13:48:05.993Z,21.56
2019-04-01T13:49:15.730Z,21.47
2019-04-01T13:50:25.444Z,21.45
2019-04-01T13:51:35.407Z,21.66
2019-04-01T13:52:48.830Z,21.83
2019-04-01T13:54:14.018Z,21.84
2019-04-01T13:55:23.728Z,21.72
2019-04-01T13:56:33.696Z,21.43
2019-04-01T13:57:44.396Z,21.35
2019-04-01T13:58:54.370Z,21.41
2019-04-01T14:00:04.121Z,21.41
2019-04-01T14:01:14.085Z,21.62
2019-04-01T14:02:23.814Z,21.74
2019-04-01T14:03:38.430Z,21.85
2019-04-01T14:04:48.390Z,22.03
2019-04-01T14:05:58.896Z,22.18
2019-04-01T14:07:08.851Z,21.81
2019-04-01T14:08:18.833Z,21.75
2019-04-01T14:09:33.341Z,21.54
2019-04-01T14:10:45.367Z,21.56
2019-04-01T14:11:55.096Z,21.65
2019-04-01T14:13:05.158Z,21.72
2019-04-01T14:14:14.890Z,21.7
2019-04-01T14:15:24.728Z,21.88
2019-04-01T14:16:34.442Z,21.65
2019-04-01T14:17:46.817Z,21.62
2019-04-01T14:18:56.787Z,21.72
2019-04-01T14:20:06.500Z,21.78
2019-04-01T14:21:23.739Z,21.88
2019-04-01T14:22:33.767Z,21.85
2019-04-01T14:23:43.758Z,21.68
2019-04-01T14:24:54.569Z,21.68
2019-04-01T14:26:04.569Z,21.59
2019-04-01T14:27:14.937Z,21.47
2019-04-01T14:28:24.649Z,21.48
2019-04-01T14:29:34.766Z,21.45
2019-04-01T14:30:45.711Z,21.6
2019-04-01T14:31:55.450Z,21.51
2019-04-01T14:33:05.786Z,21.3
2019-04-01T14:34:27.102Z,21.28
2019-04-01T14:35:38.108Z,21.23
2019-04-01T14:36:50.432Z,20.95
2019-04-01T14:38:03.075Z,20.78
2019-04-01T14:39:12.802Z,20.6
2019-04-01T14:40:22.763Z,20.64
2019-04-01T14:41:32.736Z,20.75
2019-04-01T14:42:46.406Z,20.83
2019-04-01T14:43:59.777Z,20.73
2019-04-01T14:45:10.749Z,20.75
2019-04-01T14:46:20.465Z,20.66
2019-04-01T14:47:30.174Z,20.49
2019-04-01T14:48:40.516Z,20.32
2019-04-01T14:49:50.496Z,20.14
2019-04-01T14:51:00.467Z,20.07
2019-04-01T14:52:11.307Z,19.94
2019-04-01T14:53:36.292Z,20.11
2019-04-01T14:54:47.154Z,20.17
2019-04-01T14:56:01.505Z,20.1
2019-04-01T14:57:11.229Z,19.97
2019-04-01T14:58:21.179Z,20.02
2019-04-01T14:59:31.622Z,20.17
2019-04-01T15:00:41.418Z,20.36
2019-04-01T15:01:51.374Z,20.44
2019-04-01T15:03:01.121Z,20.6
2019-04-01T15:04:10.860Z,20.7
2019-04-01T15:05:20.899Z,20.7
2019-04-01T15:06:30.713Z,20.4
2019-04-01T15:07:40.436Z,20.4
2019-04-01T15:08:52.184Z,20.46
2019-04-01T15:10:01.904Z,20.46
2019-04-01T15:11:12.318Z,20.14
2019-04-01T15:12:22.647Z,20
2019-04-01T15:13:32.658Z,19.97
2019-04-01T15:14:42.652Z,20.03
2019-04-01T15:15:52.450Z,19.84
2019-04-01T15:17:02.418Z,19.81
2019-04-01T15:18:16.382Z,19.55
2019-04-01T15:19:27.156Z,19.66